createdAt,value
2017-11-15T00:00:32.971Z,1008.64
2017-11-15T00:01:43.051Z,1008.65
2017-11-15T00:02:52.851Z,1008.65
2017-11-15T00:04:02.961Z,1008.64
2017-11-15T00:05:13.569Z,1008.57
2017-11-15T00:06:23.690Z,1008.62
2017-11-15T00:07:33.232Z,1008.58
2017-11-15T00:08:42.821Z,1008.52
2017-11-15T00:09:52.369Z,1008.55
2017-11-15T00:11:02.450Z,1008.5
2017-11-15T00:12:12.262Z,1008.53
2017-11-15T00:13:22.068Z,1008.53
2017-11-15T00:14:31.875Z,1008.51
2017-11-15T00:15:41.401Z,1008.54
2017-11-15T00:16:51.228Z,1008.57
2017-11-15T00:18:01.058Z,1008.54
2017-11-15T00:19:11.447Z,1008.59
2017-11-15T00:20:21.023Z,1008.65
2017-11-15T00:21:31.112Z,1008.68
2017-11-15T00:22:40.657Z,1008.69
2017-11-15T00:23:50.738Z,1008.66
2017-11-15T00:25:00.562Z,1008.68
2017-11-15T00:26:10.647Z,1008.7
2017-11-15T00:27:20.442Z,1008.71
2017-11-15T00:28:31.111Z,1008.71
2017-11-15T00:29:41.273Z,1008.69
2017-11-15T00:30:51.690Z,1008.73
2017-11-15T00:32:01.763Z,1008.74
2017-11-15T00:33:11.863Z,1008.79
2017-11-15T00:34:21.943Z,1008.74
2017-11-15T00:35:31.759Z,1008.76
2017-11-15T00:36:41.046Z,1008.72
2017-11-15T00:37:50.859Z,1008.73
2017-11-15T00:39:00.679Z,1008.69
2017-11-15T00:40:10.479Z,1008.72
2017-11-15T00:42:44.732Z,1008.75
2017-11-15T00:43:54.820Z,1008.7
2017-11-15T00:45:04.661Z,1008.73
2017-11-15T00:46:13.924Z,1008.75
2017-11-15T00:47:23.730Z,1008.7
2017-11-15T00:48:33.531Z,1008.68
2017-11-15T00:49:43.338Z,1008.65
2017-11-15T00:50:53.157Z,1008.63
2017-11-15T00:52:02.968Z,1008.63
2017-11-15T00:53:13.049Z,1008.57
2017-11-15T00:54:22.627Z,1008.6
2017-11-15T00:55:32.438Z,1008.6
2017-11-15T00:56:42.533Z,1008.52
2017-11-15T00:57:52.610Z,1008.6
2017-11-15T00:59:02.410Z,1008.61
2017-11-15T01:00:12.216Z,1008.64
2017-11-15T01:01:21.756Z,1008.63
2017-11-15T01:02:31.568Z,1008.62
2017-11-15T01:03:41.387Z,1008.55
2017-11-15T01:04:51.514Z,1008.6
2017-11-15T01:06:01.597Z,1008.63
2017-11-15T01:07:11.403Z,1008.61
2017-11-15T01:08:20.951Z,1008.61
2017-11-15T01:09:31.023Z,1008.64
2017-11-15T01:10:41.089Z,1008.67
2017-11-15T01:11:51.168Z,1008.67
2017-11-15T01:13:00.969Z,1008.67
2017-11-15T01:14:10.790Z,1008.73
2017-11-15T01:15:20.867Z,1008.73
2017-11-15T01:16:30.939Z,1008.72
2017-11-15T01:17:40.753Z,1008.68
2017-11-15T01:18:50.311Z,1008.68
2017-11-15T01:20:00.112Z,1008.71
2017-11-15T01:21:09.911Z,1008.68
2017-11-15T01:22:19.504Z,1008.65
2017-11-15T01:23:29.573Z,1008.66
2017-11-15T01:24:39.665Z,1008.68
2017-11-15T01:25:49.751Z,1008.64
2017-11-15T01:26:59.286Z,1008.71
2017-11-15T01:28:09.406Z,1008.66
2017-11-15T01:29:19.219Z,1008.65
2017-11-15T01:30:29.304Z,1008.64
2017-11-15T01:31:39.117Z,1008.66
2017-11-15T01:32:48.667Z,1008.68
2017-11-15T01:33:58.454Z,1008.72
2017-11-15T01:35:08.271Z,1008.75
2017-11-15T01:36:18.357Z,1008.74
2017-11-15T01:37:28.419Z,1008.72
2017-11-15T01:38:38.536Z,1008.74
2017-11-15T01:39:48.072Z,1008.66
2017-11-15T01:40:58.136Z,1008.7
2017-11-15T01:42:08.217Z,1008.66
2017-11-15T01:43:18.023Z,1008.67
2017-11-15T01:44:27.563Z,1008.66
2017-11-15T01:45:37.100Z,1008.64
2017-11-15T01:46:47.175Z,1008.65
2017-11-15T01:47:57.231Z,1008.71
2017-11-15T01:49:07.303Z,1008.66
2017-11-15T01:50:17.389Z,1008.69
2017-11-15T01:51:27.486Z,1008.65
2017-11-15T01:52:37.296Z,1008.64
2017-11-15T01:53:47.124Z,1008.64
2017-11-15T01:54:56.927Z,1008.6
2017-11-15T01:56:06.998Z,1008.59
2017-11-15T01:57:16.814Z,1008.6
2017-11-15T01:58:26.609Z,1008.58
2017-11-15T01:59:36.689Z,1008.62
2017-11-15T02:00:46.770Z,1008.61
2017-11-15T02:01:56.828Z,1008.61
2017-11-15T02:03:06.694Z,1008.64
2017-11-15T02:04:16.745Z,1008.65
2017-11-15T02:05:26.808Z,1008.6
2017-11-15T02:06:36.886Z,1008.6
2017-11-15T02:07:46.710Z,1008.63
2017-11-15T02:08:56.783Z,1008.63
2017-11-15T02:10:06.340Z,1008.64
2017-11-15T02:11:15.872Z,1008.64
2017-11-15T02:12:25.938Z,1008.59
2017-11-15T02:13:36.009Z,1008.59
2017-11-15T02:14:45.808Z,1008.63
2017-11-15T02:15:55.607Z,1008.63
2017-11-15T02:17:05.679Z,1008.58
2017-11-15T02:18:15.492Z,1008.59
2017-11-15T02:19:25.308Z,1008.59
2017-11-15T02:20:34.882Z,1008.63
2017-11-15T02:21:44.943Z,1008.69
2017-11-15T02:22:54.736Z,1008.72
2017-11-15T02:24:04.806Z,1008.74
2017-11-15T02:25:14.604Z,1008.67
2017-11-15T02:26:24.737Z,1008.69
2017-11-15T02:27:34.524Z,1008.67
2017-11-15T02:28:44.597Z,1008.67
2017-11-15T02:29:54.703Z,1008.62
2017-11-15T02:31:04.801Z,1008.58
2017-11-15T02:32:14.935Z,1008.58
2017-11-15T02:33:24.214Z,1008.6
2017-11-15T02:34:34.008Z,1008.59
2017-11-15T02:35:44.096Z,1008.56
2017-11-15T02:36:54.195Z,1008.56
2017-11-15T02:38:04.342Z,1008.56
2017-11-15T02:39:14.181Z,1008.56
2017-11-15T02:40:23.993Z,1008.52
2017-11-15T02:41:33.792Z,1008.59
2017-11-15T02:42:43.890Z,1008.53
2017-11-15T02:43:53.985Z,1008.53
2017-11-15T02:45:04.060Z,1008.6
2017-11-15T02:46:14.166Z,1008.6
2017-11-15T02:47:24.282Z,1008.61
2017-11-15T02:48:34.365Z,1008.67
2017-11-15T02:49:44.224Z,1008.64
2017-11-15T02:50:54.315Z,1008.67
2017-11-15T02:52:04.123Z,1008.76
2017-11-15T02:53:13.921Z,1008.74
2017-11-15T02:54:24.007Z,1008.75
2017-11-15T02:55:33.864Z,1008.73
2017-11-15T02:56:43.945Z,1008.75
2017-11-15T02:57:53.471Z,1008.73
2017-11-15T02:59:03.312Z,1008.74
2017-11-15T03:00:13.128Z,1008.74
2017-11-15T03:01:23.005Z,1008.72
2017-11-15T03:02:32.818Z,1008.75
2017-11-15T03:33:26.493Z,1008.51
2017-11-15T03:34:36.290Z,1008.53
2017-11-15T03:35:45.819Z,1008.53
2017-11-15T03:36:55.904Z,1008.54
2017-11-15T03:38:05.700Z,1008.59
2017-11-15T03:39:15.764Z,1008.55
2017-11-15T03:40:25.566Z,1008.56
2017-11-15T03:41:35.371Z,1008.53
2017-11-15T03:42:45.171Z,1008.51
2017-11-15T03:43:55.261Z,1008.52
2017-11-15T03:45:05.333Z,1008.55
2017-11-15T03:46:15.417Z,1008.57
2017-11-15T03:47:25.225Z,1008.57
2017-11-15T03:48:35.284Z,1008.55
2017-11-15T03:49:45.084Z,1008.58
2017-11-15T03:50:54.886Z,1008.55
2017-11-15T03:52:04.980Z,1008.58
2017-11-15T03:53:14.797Z,1008.62
2017-11-15T03:54:24.870Z,1008.63
2017-11-15T03:55:34.951Z,1008.68
2017-11-15T03:56:44.771Z,1008.65
2017-11-15T03:57:54.820Z,1008.64
2017-11-15T03:59:04.625Z,1008.65
2017-11-15T04:00:14.208Z,1008.62
2017-11-15T04:01:24.313Z,1008.67
2017-11-15T04:02:34.172Z,1008.64
2017-11-15T04:03:44.235Z,1008.65
2017-11-15T04:04:53.793Z,1008.65
2017-11-15T04:06:03.893Z,1008.66
2017-11-15T04:07:13.686Z,1008.64
2017-11-15T04:08:23.490Z,1008.6
2017-11-15T04:09:33.584Z,1008.59
2017-11-15T04:10:43.130Z,1008.55
2017-11-15T04:11:53.949Z,1008.57
2017-11-15T04:13:03.761Z,1008.52
2017-11-15T04:14:13.913Z,1008.53
2017-11-15T04:15:23.441Z,1008.51
2017-11-15T04:16:33.514Z,1008.59
2017-11-15T04:17:43.595Z,1008.62
2017-11-15T04:18:53.670Z,1008.56
2017-11-15T04:20:03.195Z,1008.63
2017-11-15T04:21:12.727Z,1008.65
2017-11-15T04:22:22.544Z,1008.64
2017-11-15T04:23:32.080Z,1008.68
2017-11-15T04:24:42.161Z,1008.68
2017-11-15T04:25:52.020Z,1008.67
2017-11-15T04:27:01.553Z,1008.67
2017-11-15T04:28:11.617Z,1008.66
2017-11-15T04:29:21.700Z,1008.67
2017-11-15T04:30:31.765Z,1008.66
2017-11-15T04:31:41.632Z,1008.69
2017-11-15T04:32:51.699Z,1008.69
2017-11-15T04:34:01.813Z,1008.69
2017-11-15T04:35:11.886Z,1008.7
2017-11-15T04:36:21.965Z,1008.68
2017-11-15T04:37:31.512Z,1008.69
2017-11-15T04:38:41.325Z,1008.66
2017-11-15T04:39:50.856Z,1008.66
2017-11-15T04:41:00.669Z,1008.66
2017-11-15T04:42:10.475Z,1008.65
2017-11-15T04:43:20.027Z,1008.65
2017-11-15T04:44:29.577Z,1008.65
2017-11-15T04:45:39.382Z,1008.64
2017-11-15T04:46:48.918Z,1008.72
2017-11-15T04:47:59.012Z,1008.71
2017-11-15T04:49:09.096Z,1008.73
2017-11-15T04:50:18.904Z,1008.8
2017-11-15T04:51:28.972Z,1008.83
2017-11-15T04:52:39.040Z,1008.85
2017-11-15T04:53:48.841Z,1008.81
2017-11-15T04:54:58.923Z,1008.81
2017-11-15T04:56:08.744Z,1008.83
2017-11-15T04:57:18.531Z,1008.79
2017-11-15T04:58:28.328Z,1008.78
2017-11-15T04:59:38.401Z,1008.81
2017-11-15T05:00:48.474Z,1008.81
2017-11-15T05:01:57.762Z,1008.86
2017-11-15T05:03:07.827Z,1008.87
2017-11-15T05:04:17.887Z,1008.91
2017-11-15T05:05:27.705Z,1008.86
2017-11-15T05:06:37.562Z,1008.87
2017-11-15T05:07:47.381Z,1008.94
2017-11-15T05:08:57.471Z,1008.9
2017-11-15T05:10:07.265Z,1008.91
2017-11-15T05:11:17.336Z,1008.95
2017-11-15T05:12:27.410Z,1008.95
2017-11-15T05:13:37.223Z,1009
2017-11-15T05:14:47.027Z,1008.96
2017-11-15T05:15:56.563Z,1008.97
2017-11-15T05:17:06.649Z,1008.98
2017-11-15T05:18:16.445Z,1009.02
2017-11-15T05:19:26.537Z,1008.97
2017-11-15T05:20:36.596Z,1009.04
2017-11-15T05:21:46.693Z,1009.06
2017-11-15T05:22:56.501Z,1009.04
2017-11-15T05:24:06.343Z,1009.09
2017-11-15T05:25:16.429Z,1009.05
2017-11-15T05:26:26.984Z,1009.13
2017-11-15T05:27:36.811Z,1009.14
2017-11-15T05:28:46.890Z,1009.15
2017-11-15T05:29:56.988Z,1009.2
2017-11-15T05:31:06.511Z,1009.15
2017-11-15T05:32:16.596Z,1009.12
2017-11-15T05:33:26.406Z,1009.12
2017-11-15T05:34:36.222Z,1009.13
2017-11-15T05:35:46.417Z,1009.14
2017-11-15T05:36:56.220Z,1009.13
2017-11-15T05:38:05.745Z,1009.2
2017-11-15T05:39:15.552Z,1009.19
2017-11-15T05:40:25.100Z,1009.18
2017-11-15T05:41:34.637Z,1009.2
2017-11-15T05:42:44.708Z,1009.22
2017-11-15T05:43:54.785Z,1009.26
2017-11-15T05:45:04.863Z,1009.23
2017-11-15T05:46:14.944Z,1009.26
2017-11-15T05:47:24.736Z,1009.25
2017-11-15T05:48:34.544Z,1009.29
2017-11-15T05:49:44.630Z,1009.31
2017-11-15T05:50:54.452Z,1009.32
2017-11-15T05:52:04.270Z,1009.28
2017-11-15T05:53:14.408Z,1009.3
2017-11-15T05:54:24.485Z,1009.3
2017-11-15T05:55:34.283Z,1009.31
2017-11-15T05:56:43.566Z,1009.34
2017-11-15T05:57:53.635Z,1009.34
2017-11-15T05:59:03.739Z,1009.4
2017-11-15T06:00:13.566Z,1009.41
2017-11-15T06:01:23.369Z,1009.44
2017-11-15T06:02:32.647Z,1009.47
2017-11-15T06:03:42.712Z,1009.47
2017-11-15T06:04:52.841Z,1009.49
2017-11-15T06:06:02.916Z,1009.41
2017-11-15T06:07:12.990Z,1009.43
2017-11-15T06:08:23.006Z,1009.47
2017-11-15T06:09:33.117Z,1009.46
2017-11-15T06:10:43.619Z,1009.51
2017-11-15T06:11:53.687Z,1009.5
2017-11-15T06:13:03.875Z,1009.49
2017-11-15T06:14:14.187Z,1009.51
2017-11-15T06:15:24.223Z,1009.49
2017-11-15T06:16:34.104Z,1009.48
2017-11-15T06:17:43.725Z,1009.46
2017-11-15T06:18:52.790Z,1009.48
2017-11-15T06:20:03.095Z,1009.45
2017-11-15T06:21:13.830Z,1009.48
2017-11-15T06:22:24.138Z,1009.5
2017-11-15T06:23:34.258Z,1009.53
2017-11-15T06:24:44.829Z,1009.52
2017-11-15T06:25:54.860Z,1009.51
2017-11-15T06:27:05.160Z,1009.55
2017-11-15T06:28:15.431Z,1009.57
2017-11-15T06:29:24.782Z,1009.52
2017-11-15T06:30:34.623Z,1009.58
2017-11-15T06:31:44.898Z,1009.56
2017-11-15T06:32:55.276Z,1009.61
2017-11-15T06:34:06.142Z,1009.58
2017-11-15T06:35:16.092Z,1009.62
2017-11-15T06:36:26.602Z,1009.58
2017-11-15T06:37:37.175Z,1009.56
2017-11-15T06:38:47.598Z,1009.55
2017-11-15T06:39:57.686Z,1009.6
2017-11-15T06:41:07.492Z,1009.59
2017-11-15T06:42:17.550Z,1009.59
2017-11-15T06:43:27.366Z,1009.59
2017-11-15T06:44:37.447Z,1009.64
2017-11-15T06:45:47.564Z,1009.64
2017-11-15T06:46:57.629Z,1009.64
2017-11-15T06:48:07.422Z,1009.65
2017-11-15T06:49:17.234Z,1009.68
2017-11-15T06:50:27.292Z,1009.71
2017-11-15T06:51:37.412Z,1009.73
2017-11-15T06:52:47.201Z,1009.74
2017-11-15T06:53:56.749Z,1009.74
2017-11-15T06:55:06.556Z,1009.74
2017-11-15T06:56:16.364Z,1009.64
2017-11-15T06:57:26.489Z,1009.64
2017-11-15T06:58:36.577Z,1009.62
2017-11-15T06:59:46.387Z,1009.63
2017-11-15T07:00:56.437Z,1009.68
2017-11-15T07:02:06.533Z,1009.7
2017-11-15T07:03:16.393Z,1009.75
2017-11-15T07:04:26.502Z,1009.74
2017-11-15T07:05:36.325Z,1009.76
2017-11-15T07:06:46.436Z,1009.76
2017-11-15T07:07:56.247Z,1009.76
2017-11-15T07:09:06.099Z,1009.76
2017-11-15T07:10:15.915Z,1009.75
2017-11-15T07:11:25.712Z,1009.77
2017-11-15T07:12:35.516Z,1009.73
2017-11-15T07:13:45.349Z,1009.76
2017-11-15T07:14:55.487Z,1009.78
2017-11-15T07:16:05.296Z,1009.78
2017-11-15T07:17:15.380Z,1009.84
2017-11-15T07:18:25.454Z,1009.83
2017-11-15T07:19:35.262Z,1009.81
2017-11-15T07:20:45.346Z,1009.83
2017-11-15T07:21:55.159Z,1009.85
2017-11-15T07:23:05.250Z,1009.81
2017-11-15T07:24:15.062Z,1009.84
2017-11-15T07:25:24.885Z,1009.83
2017-11-15T07:26:35.018Z,1009.84
2017-11-15T07:27:44.832Z,1009.89
2017-11-15T07:28:54.635Z,1009.9
2017-11-15T07:30:04.176Z,1009.92
2017-11-15T07:31:14.275Z,1009.87
2017-11-15T07:32:24.107Z,1009.85
2017-11-15T07:33:34.183Z,1009.87
2017-11-15T07:34:44.283Z,1009.88
2017-11-15T07:35:54.365Z,1009.88
2017-11-15T07:37:04.447Z,1009.9
2017-11-15T07:38:14.944Z,1009.89
2017-11-15T07:39:24.490Z,1009.95
2017-11-15T07:40:34.568Z,1009.92
2017-11-15T07:41:44.404Z,1009.93
2017-11-15T07:42:54.212Z,1009.98
2017-11-15T07:44:04.329Z,1010
2017-11-15T07:45:14.429Z,1009.95
2017-11-15T07:46:24.252Z,1009.89
2017-11-15T07:47:33.556Z,1009.93
2017-11-15T07:48:43.364Z,1009.98
2017-11-15T07:49:53.212Z,1009.95
2017-11-15T07:51:02.756Z,1009.96
2017-11-15T07:52:12.828Z,1009.97
2017-11-15T07:53:22.911Z,1010.02
2017-11-15T07:54:32.466Z,1009.96
2017-11-15T07:55:42.054Z,1009.95
2017-11-15T07:56:52.126Z,1010.02
2017-11-15T07:58:02.186Z,1010.08
2017-11-15T07:59:12.350Z,1010.07
2017-11-15T08:00:23.781Z,1010.06
2017-11-15T08:01:33.611Z,1010.14
2017-11-15T08:02:43.787Z,1010.12
2017-11-15T08:03:53.620Z,1010.17
2017-11-15T08:05:03.440Z,1010.15
2017-11-15T08:06:13.246Z,1010.15
2017-11-15T08:07:23.318Z,1010.15
2017-11-15T08:08:33.152Z,1010.15
2017-11-15T08:09:42.705Z,1010.15
2017-11-15T08:10:52.929Z,1010.17
2017-11-15T08:12:02.753Z,1010.17
2017-11-15T08:13:12.361Z,1010.2
2017-11-15T08:14:22.182Z,1010.18
2017-11-15T08:15:32.301Z,1010.19
2017-11-15T08:16:42.399Z,1010.15
2017-11-15T08:17:52.218Z,1010.17
2017-11-15T08:19:02.040Z,1010.14
2017-11-15T08:20:12.132Z,1010.14
2017-11-15T08:21:21.967Z,1010.09
2017-11-15T08:22:31.526Z,1010.08
2017-11-15T08:23:41.654Z,1010.08
2017-11-15T08:24:51.802Z,1010.07
2017-11-15T08:26:01.909Z,1010.12
2017-11-15T08:27:11.683Z,1010.11
2017-11-15T08:28:21.594Z,1010.1
2017-11-15T08:29:31.406Z,1010.17
2017-11-15T08:30:41.495Z,1010.17
2017-11-15T08:31:51.610Z,1010.25
2017-11-15T08:33:01.168Z,1010.23
2017-11-15T08:34:11.274Z,1010.23
2017-11-15T08:35:21.090Z,1010.22
2017-11-15T08:36:30.916Z,1010.22
2017-11-15T08:37:40.479Z,1010.25
2017-11-15T08:38:50.590Z,1010.2
2017-11-15T08:40:00.429Z,1010.16
2017-11-15T08:41:10.508Z,1010.22
2017-11-15T08:42:20.649Z,1010.22
2017-11-15T08:43:30.481Z,1010.27
2017-11-15T08:44:40.572Z,1010.24
2017-11-15T08:45:50.391Z,1010.26
2017-11-15T08:47:00.491Z,1010.22
2017-11-15T08:48:10.309Z,1010.24
2017-11-15T08:49:19.869Z,1010.26
2017-11-15T08:50:29.971Z,1010.22
2017-11-15T08:51:40.038Z,1010.29
2017-11-15T08:52:50.125Z,1010.37
2017-11-15T08:54:00.189Z,1010.35
2017-11-15T08:55:10.271Z,1010.38
2017-11-15T08:56:20.100Z,1010.37
2017-11-15T08:57:30.187Z,1010.33
2017-11-15T08:58:40.012Z,1010.27
2017-11-15T08:59:49.829Z,1010.25
2017-11-15T09:00:59.926Z,1010.25
2017-11-15T09:02:10.018Z,1010.26
2017-11-15T09:03:19.842Z,1010.28
2017-11-15T09:04:29.915Z,1010.31
2017-11-15T09:05:40.414Z,1010.31
2017-11-15T09:06:50.502Z,1010.32
2017-11-15T09:08:00.585Z,1010.3
2017-11-15T09:09:10.400Z,1010.35
2017-11-15T09:10:20.474Z,1010.34
2017-11-15T09:11:30.069Z,1010.34
2017-11-15T09:12:39.341Z,1010.33
2017-11-15T09:13:49.413Z,1010.34
2017-11-15T09:14:59.492Z,1010.35
2017-11-15T09:16:09.576Z,1010.28
2017-11-15T09:17:19.677Z,1010.3
2017-11-15T09:18:29.492Z,1010.32
2017-11-15T09:19:39.344Z,1010.31
2017-11-15T09:20:49.167Z,1010.31
2017-11-15T09:21:59.254Z,1010.31
2017-11-15T09:23:09.160Z,1010.35
2017-11-15T09:24:19.244Z,1010.38
2017-11-15T09:25:29.330Z,1010.35
2017-11-15T09:26:39.428Z,1010.43
2017-11-15T09:27:49.245Z,1010.4
2017-11-15T09:28:58.856Z,1010.37
2017-11-15T09:30:08.413Z,1010.4
2017-11-15T09:31:17.952Z,1010.4
2017-11-15T09:32:28.085Z,1010.42
2017-11-15T09:33:37.906Z,1010.41
2017-11-15T09:34:48.053Z,1010.42
2017-11-15T09:35:58.160Z,1010.37
2017-11-15T09:37:07.704Z,1010.38
2017-11-15T09:38:17.842Z,1010.36
2017-11-15T09:39:27.406Z,1010.32
2017-11-15T09:40:37.564Z,1010.35
2017-11-15T09:41:47.654Z,1010.37
2017-11-15T09:42:57.478Z,1010.33
2017-11-15T09:44:07.330Z,1010.39
2017-11-15T09:45:17.156Z,1010.37
2017-11-15T09:46:27.283Z,1010.33
2017-11-15T09:47:37.116Z,1010.3
2017-11-15T09:48:47.201Z,1010.28
2017-11-15T09:49:57.016Z,1010.28
2017-11-15T09:51:07.103Z,1010.3
2017-11-15T09:52:16.986Z,1010.32
2017-11-15T09:53:26.564Z,1010.3
2017-11-15T09:54:36.368Z,1010.34
2017-11-15T09:55:46.431Z,1010.36
2017-11-15T09:56:56.552Z,1010.3
2017-11-15T09:58:06.366Z,1010.31
2017-11-15T09:59:16.454Z,1010.25
2017-11-15T10:00:26.298Z,1010.25
2017-11-15T10:01:36.424Z,1010.21
2017-11-15T10:02:46.252Z,1010.28
2017-11-15T10:03:56.377Z,1010.27
2017-11-15T10:05:06.420Z,1010.28
2017-11-15T10:06:19.416Z,1010.28
2017-11-15T10:07:34.566Z,1010.23
2017-11-15T10:08:48.508Z,1010.2
2017-11-15T10:10:02.598Z,1010.21
2017-11-15T10:11:16.002Z,1010.21
2017-11-15T10:12:29.664Z,1010.17
2017-11-15T10:13:43.142Z,1010.17
2017-11-15T10:14:57.713Z,1010.1
2017-11-15T10:16:11.365Z,1010.05
2017-11-15T10:17:25.397Z,1010.05
2017-11-15T10:18:39.847Z,1010.03
2017-11-15T10:19:54.624Z,1010.04
2017-11-15T10:21:05.011Z,1009.99
2017-11-15T10:22:15.155Z,1010.04
2017-11-15T10:23:24.723Z,1010.03
2017-11-15T10:24:34.605Z,1010.02
2017-11-15T10:25:44.707Z,1010.02
2017-11-15T10:26:54.527Z,1009.96
2017-11-15T10:28:04.653Z,1009.96
2017-11-15T10:29:14.529Z,1009.98
2017-11-15T10:30:24.668Z,1009.96
2017-11-15T10:31:34.474Z,1009.97
2017-11-15T10:32:44.561Z,1009.98
2017-11-15T10:33:54.678Z,1009.98
2017-11-15T10:35:03.969Z,1010.03
2017-11-15T10:36:14.120Z,1009.97
2017-11-15T10:37:23.958Z,1009.97
2017-11-15T10:38:34.045Z,1009.92
2017-11-15T10:39:44.140Z,1009.95
2017-11-15T10:40:54.248Z,1009.97
2017-11-15T10:42:04.419Z,1009.97
2017-11-15T10:43:14.240Z,1009.99
2017-11-15T10:44:24.351Z,1009.96
2017-11-15T10:45:34.199Z,1009.89
2017-11-15T10:46:44.306Z,1009.92
2017-11-15T10:47:54.174Z,1009.88
2017-11-15T10:49:04.282Z,1009.9
2017-11-15T10:50:13.826Z,1009.85
2017-11-15T10:51:23.376Z,1009.81
2017-11-15T10:52:33.213Z,1009.8
2017-11-15T10:53:43.362Z,1009.8
2017-11-15T10:54:53.500Z,1009.8
2017-11-15T10:56:03.339Z,1009.78
2017-11-15T10:57:13.427Z,1009.76
2017-11-15T10:58:23.516Z,1009.75
2017-11-15T10:59:33.651Z,1009.72
2017-11-15T11:00:43.479Z,1009.69
2017-11-15T11:01:53.286Z,1009.69
2017-11-15T11:03:03.368Z,1009.64
2017-11-15T11:04:13.196Z,1009.65
2017-11-15T11:05:23.287Z,1009.63
2017-11-15T11:06:33.096Z,1009.59
2017-11-15T11:07:43.240Z,1009.62
2017-11-15T11:08:53.330Z,1009.54
2017-11-15T11:10:03.428Z,1009.53
2017-11-15T11:11:13.046Z,1009.53
2017-11-15T11:12:23.160Z,1009.49
2017-11-15T11:13:32.720Z,1009.46
2017-11-15T11:14:42.521Z,1009.45
2017-11-15T11:15:52.088Z,1009.49
2017-11-15T11:17:02.240Z,1009.45
2017-11-15T11:18:11.797Z,1009.46
2017-11-15T11:19:21.918Z,1009.5
2017-11-15T11:20:31.488Z,1009.46
2017-11-15T11:21:41.317Z,1009.42
2017-11-15T11:22:51.487Z,1009.43
2017-11-15T11:24:01.319Z,1009.41
2017-11-15T11:25:11.426Z,1009.34
2017-11-15T11:26:21.551Z,1009.34
2017-11-15T11:27:31.669Z,1009.35
2017-11-15T11:28:41.535Z,1009.34
2017-11-15T11:29:51.621Z,1009.28
2017-11-15T11:31:01.739Z,1009.33
2017-11-15T11:32:11.560Z,1009.33
2017-11-15T11:33:21.647Z,1009.33
2017-11-15T11:34:31.557Z,1009.31
2017-11-15T11:35:41.384Z,1009.33
2017-11-15T11:36:51.242Z,1009.27
2017-11-15T11:38:01.055Z,1009.27
2017-11-15T11:39:10.632Z,1009.22
2017-11-15T11:40:20.740Z,1009.22
2017-11-15T11:41:30.864Z,1009.32
2017-11-15T11:42:40.948Z,1009.28
2017-11-15T11:43:51.043Z,1009.34
2017-11-15T11:45:00.601Z,1009.26
2017-11-15T11:46:10.720Z,1009.26
2017-11-15T11:47:20.838Z,1009.2
2017-11-15T11:48:30.926Z,1009.23
2017-11-15T11:49:41.012Z,1009.18
2017-11-15T11:50:51.140Z,1009.17
2017-11-15T11:52:01.293Z,1009.2
2017-11-15T11:53:10.866Z,1009.15
2017-11-15T11:54:20.707Z,1009.15
2017-11-15T11:55:30.534Z,1009.11
2017-11-15T11:56:40.609Z,1009.08
2017-11-15T11:57:50.442Z,1009.11
2017-11-15T11:59:00.538Z,1009.05
2017-11-15T12:00:10.363Z,1009.04
2017-11-15T12:01:19.952Z,1009.06
2017-11-15T12:02:29.554Z,1009.01
2017-11-15T12:03:39.649Z,1009.03
2017-11-15T12:04:49.511Z,1008.99
2017-11-15T12:05:59.620Z,1008.98
2017-11-15T12:07:09.188Z,1008.99
2017-11-15T12:08:18.759Z,1009.01
2017-11-15T12:09:28.597Z,1008.95
2017-11-15T12:10:38.710Z,1009.03
2017-11-15T12:11:48.817Z,1009.04
2017-11-15T12:12:58.897Z,1009.07
2017-11-15T12:14:08.716Z,1009.1
2017-11-15T12:15:18.837Z,1009.07
2017-11-15T12:16:28.670Z,1009.03
2017-11-15T12:17:38.762Z,1009.01
2017-11-15T12:18:48.867Z,1009.01
2017-11-15T12:19:58.180Z,1008.9
2017-11-15T12:21:08.019Z,1008.88
2017-11-15T12:22:17.645Z,1008.83
2017-11-15T12:23:27.725Z,1008.88
2017-11-15T12:24:37.818Z,1008.85
2017-11-15T12:25:47.656Z,1008.85
2017-11-15T12:26:57.760Z,1008.81
2017-11-15T12:28:07.370Z,1008.8
2017-11-15T12:29:17.490Z,1008.79
2017-11-15T12:30:27.302Z,1008.78
2017-11-15T12:31:37.134Z,1008.79
2017-11-15T12:32:46.966Z,1008.79
2017-11-15T12:33:57.098Z,1008.77
2017-11-15T12:35:07.193Z,1008.77
2017-11-15T12:36:17.027Z,1008.78
2017-11-15T12:37:27.125Z,1008.75
2017-11-15T12:38:37.196Z,1008.74
2017-11-15T12:39:47.292Z,1008.7
2017-11-15T12:40:57.137Z,1008.71
2017-11-15T12:42:08.027Z,1008.69
2017-11-15T12:43:17.574Z,1008.67
2017-11-15T12:44:27.667Z,1008.67
2017-11-15T12:45:37.824Z,1008.71
2017-11-15T12:46:47.658Z,1008.66
2017-11-15T12:47:57.201Z,1008.68
2017-11-15T12:49:07.277Z,1008.69
2017-11-15T12:50:16.850Z,1008.69
2017-11-15T12:51:26.719Z,1008.67
2017-11-15T12:52:36.564Z,1008.63
2017-11-15T12:53:46.668Z,1008.67
2017-11-15T12:54:57.045Z,1008.59
2017-11-15T12:56:07.972Z,1008.6
2017-11-15T12:57:18.175Z,1008.59
2017-11-15T12:58:28.312Z,1008.58
2017-11-15T12:59:38.162Z,1008.59
2017-11-15T13:00:48.260Z,1008.59
2017-11-15T13:01:57.819Z,1008.55
2017-11-15T13:03:07.686Z,1008.55
2017-11-15T13:04:17.767Z,1008.55
2017-11-15T13:05:27.341Z,1008.58
2017-11-15T13:06:37.439Z,1008.58
2017-11-15T13:07:49.267Z,1008.57
2017-11-15T13:08:59.137Z,1008.56
2017-11-15T13:10:08.957Z,1008.56
2017-11-15T13:11:18.781Z,1008.58
2017-11-15T13:12:28.876Z,1008.64
2017-11-15T13:13:38.738Z,1008.63
2017-11-15T13:14:48.955Z,1008.6
2017-11-15T13:15:59.048Z,1008.58
2017-11-15T13:17:08.890Z,1008.58
2017-11-15T13:18:18.696Z,1008.54
2017-11-15T13:19:28.824Z,1008.53
2017-11-15T13:20:38.691Z,1008.5
2017-11-15T13:21:48.820Z,1008.53
2017-11-15T13:22:58.652Z,1008.51
2017-11-15T13:24:08.750Z,1008.54
2017-11-15T13:25:18.847Z,1008.57
2017-11-15T13:26:28.916Z,1008.52
2017-11-15T13:27:38.470Z,1008.53
2017-11-15T13:28:48.565Z,1008.55
2017-11-15T13:29:58.380Z,1008.51
2017-11-15T13:31:07.930Z,1008.49
2017-11-15T13:32:18.095Z,1008.5
2017-11-15T13:33:27.658Z,1008.46
2017-11-15T13:34:37.755Z,1008.48
2017-11-15T13:35:47.595Z,1008.43
2017-11-15T13:36:57.707Z,1008.51
2017-11-15T13:38:07.811Z,1008.53
2017-11-15T13:39:17.630Z,1008.55
2017-11-15T13:40:27.463Z,1008.51
2017-11-15T13:41:37.269Z,1008.53
2017-11-15T13:42:47.374Z,1008.49
2017-11-15T13:43:56.941Z,1008.54
2017-11-15T13:45:06.768Z,1008.5
2017-11-15T13:46:16.590Z,1008.5
2017-11-15T13:47:26.716Z,1008.46
2017-11-15T13:48:37.399Z,1008.45
2017-11-15T13:49:47.061Z,1008.43
2017-11-15T13:50:57.171Z,1008.43
2017-11-15T13:52:07.284Z,1008.44
2017-11-15T13:53:17.409Z,1008.44
2017-11-15T13:54:27.519Z,1008.47
2017-11-15T13:55:37.347Z,1008.5
2017-11-15T13:56:47.178Z,1008.48
2017-11-15T13:57:56.729Z,1008.54
2017-11-15T13:59:06.828Z,1008.48
2017-11-15T14:00:16.667Z,1008.54
2017-11-15T14:01:26.548Z,1008.52
2017-11-15T14:02:36.372Z,1008.53
2017-11-15T14:03:46.186Z,1008.52
2017-11-15T14:04:55.740Z,1008.5
2017-11-15T14:06:05.831Z,1008.51
2017-11-15T14:07:15.441Z,1008.49
2017-11-15T14:08:25.556Z,1008.49
2017-11-15T14:09:35.382Z,1008.55
2017-11-15T14:10:45.205Z,1008.48
2017-11-15T14:11:54.506Z,1008.47
2017-11-15T14:13:04.329Z,1008.46
2017-11-15T14:14:14.530Z,1008.48
2017-11-15T14:15:24.377Z,1008.51
2017-11-15T14:16:34.500Z,1008.49
2017-11-15T14:17:44.612Z,1008.46
2017-11-15T14:18:54.771Z,1008.48
2017-11-15T14:20:04.858Z,1008.43
2017-11-15T14:21:14.950Z,1008.45
2017-11-15T14:22:24.790Z,1008.45
2017-11-15T14:23:34.874Z,1008.46
2017-11-15T14:24:44.770Z,1008.44
2017-11-15T14:25:54.590Z,1008.45
2017-11-15T14:27:04.697Z,1008.5
2017-11-15T14:28:14.518Z,1008.47
2017-11-15T14:29:24.592Z,1008.49
2017-11-15T14:30:34.734Z,1008.51
2017-11-15T14:31:44.600Z,1008.49
2017-11-15T14:32:54.440Z,1008.48
2017-11-15T14:34:04.281Z,1008.5
2017-11-15T14:35:14.377Z,1008.52
2017-11-15T14:36:24.263Z,1008.52
2017-11-15T14:37:34.376Z,1008.58
2017-11-15T14:38:44.474Z,1008.53
2017-11-15T14:39:54.609Z,1008.52
2017-11-15T14:41:04.706Z,1008.53